createdAt,value
2023-11-01T00:00:25.517Z,10.50
2023-11-01T00:02:52.412Z,10.50
2023-11-01T00:05:19.543Z,10.50
2023-11-01T00:07:46.362Z,10.50
2023-11-01T00:10:13.421Z,10.50
2023-11-01T00:12:40.284Z,10.50
2023-11-01T00:15:07.417Z,10.50
2023-11-01T00:17:34.380Z,10.50
2023-11-01T00:20:01.369Z,10.50
2023-11-01T00:22:28.264Z,10.50
2023-11-01T00:24:55.052Z,10.50
2023-11-01T00:27:21.932Z,10.50
2023-11-01T00:29:48.881Z,10.40
2023-11-01T00:32:15.760Z,10.50
2023-11-01T00:34:42.660Z,10.40
2023-11-01T00:37:10.224Z,10.50
2023-11-01T00:39:37.471Z,10.40
2023-11-01T00:42:04.450Z,10.40
2023-11-01T00:44:31.523Z,10.50
2023-11-01T00:46:58.622Z,10.50
2023-11-01T00:49:25.524Z,10.50
2023-11-01T00:51:52.579Z,10.60
2023-11-01T00:54:19.389Z,10.60
2023-11-01T00:56:46.415Z,10.60
2023-11-01T00:59:13.344Z,10.70
2023-11-01T01:01:40.167Z,10.60
2023-11-01T01:04:07.850Z,10.70
2023-11-01T01:06:34.788Z,10.70
2023-11-01T01:09:01.619Z,10.70
2023-11-01T01:11:28.474Z,10.70
2023-11-01T01:13:55.296Z,10.70
2023-11-01T01:16:22.161Z,10.70
2023-11-01T01:18:48.969Z,10.70
2023-11-01T01:21:15.737Z,10.70
2023-11-01T01:23:42.794Z,10.60
2023-11-01T01:26:09.746Z,10.60
2023-11-01T01:28:36.621Z,10.50
2023-11-01T01:31:03.770Z,10.50
2023-11-01T01:33:30.571Z,10.40
2023-11-01T01:35:58.607Z,10.40
2023-11-01T01:38:25.523Z,10.30
2023-11-01T01:40:52.363Z,10.20
2023-11-01T01:43:21.793Z,10.20
2023-11-01T01:45:58.029Z,10.20
2023-11-01T01:48:25.022Z,10.10
2023-11-01T01:50:51.817Z,10.10
2023-11-01T01:53:18.886Z,10.10
2023-11-01T01:55:46.395Z,10.10
2023-11-01T01:58:14.229Z,10.10
2023-11-01T02:00:41.196Z,10.10
2023-11-01T02:03:08.106Z,10.10
2023-11-01T02:05:35.085Z,10.10
2023-11-01T02:08:02.061Z,10.10
2023-11-01T02:10:28.973Z,10.10
2023-11-01T02:12:55.833Z,10.00
2023-11-01T02:15:25.144Z,10.00
2023-11-01T02:17:52.422Z,10.00
2023-11-01T02:20:19.793Z,10.00
2023-11-01T02:22:46.632Z,10.00
2023-11-01T02:25:14.623Z,9.90
2023-11-01T02:27:41.629Z,9.90
2023-11-01T02:30:08.737Z,9.90
2023-11-01T02:32:35.697Z,9.90
2023-11-01T02:35:02.525Z,9.90
2023-11-01T02:37:30.494Z,9.80
2023-11-01T02:39:57.408Z,9.80
2023-11-01T02:42:24.200Z,9.80
2023-11-01T02:44:51.083Z,9.80
2023-11-01T02:47:18.112Z,9.80
2023-11-01T02:49:45.256Z,9.80
2023-11-01T02:52:12.197Z,9.80
2023-11-01T02:54:39.219Z,9.80
2023-11-01T02:57:06.067Z,9.80
2023-11-01T02:59:32.946Z,9.80
2023-11-01T03:01:59.796Z,9.80
2023-11-01T03:04:26.646Z,9.90
2023-11-01T03:06:53.624Z,9.90
2023-11-01T03:09:21.254Z,9.90
2023-11-01T03:11:48.041Z,9.90
2023-11-01T03:14:15.502Z,9.90
2023-11-01T03:16:42.337Z,9.90
2023-11-01T03:19:09.564Z,9.90
2023-11-01T03:21:36.413Z,9.90
2023-11-01T03:24:03.240Z,9.90
2023-11-01T03:26:30.027Z,9.90
2023-11-01T03:28:57.646Z,9.90
2023-11-01T03:31:24.465Z,9.90
2023-11-01T03:33:51.246Z,9.90
2023-11-01T03:36:18.178Z,9.80
2023-11-01T03:38:45.450Z,9.90
2023-11-01T03:41:12.744Z,9.80
2023-11-01T03:43:39.571Z,9.80
2023-11-01T03:46:08.229Z,9.70
2023-11-01T03:48:35.021Z,9.70
2023-11-01T03:51:01.857Z,9.70
2023-11-01T03:53:28.723Z,9.60
2023-11-01T03:55:55.590Z,9.50
2023-11-01T03:58:22.387Z,9.50
2023-11-01T04:00:49.791Z,9.40
2023-11-01T04:03:16.848Z,9.40
2023-11-01T04:05:43.777Z,9.40
2023-11-01T04:08:10.551Z,9.40
2023-11-01T04:10:38.004Z,9.40
2023-11-01T04:13:05.780Z,9.40
2023-11-01T04:15:32.906Z,9.40
2023-11-01T04:18:02.435Z,9.30
2023-11-01T04:20:30.838Z,9.30
2023-11-01T04:22:57.617Z,9.30
2023-11-01T04:25:24.654Z,9.20
2023-11-01T04:27:52.193Z,9.20
2023-11-01T04:30:19.397Z,9.10
2023-11-01T04:32:46.305Z,9.10
2023-11-01T04:35:13.117Z,9.00
2023-11-01T04:37:40.883Z,9.00
2023-11-01T04:40:14.782Z,9.00
2023-11-01T04:42:43.852Z,9.00
2023-11-01T04:45:12.432Z,8.90
2023-11-01T04:47:40.621Z,8.80
2023-11-01T04:50:10.019Z,8.80
2023-11-01T04:52:40.611Z,8.80
2023-11-01T04:55:09.248Z,8.80
2023-11-01T04:57:36.026Z,8.80
2023-11-01T05:00:09.688Z,8.80
2023-11-01T05:02:37.278Z,8.80
2023-11-01T05:05:07.676Z,8.80
2023-11-01T05:07:35.187Z,8.80
2023-11-01T05:10:03.695Z,8.80
2023-11-01T05:12:30.664Z,8.80
2023-11-01T05:14:57.532Z,8.80
2023-11-01T05:17:24.337Z,8.90
2023-11-01T05:19:51.224Z,8.90
2023-11-01T05:22:17.993Z,9.00
2023-11-01T05:24:50.160Z,9.00
2023-11-01T05:27:18.879Z,9.10
2023-11-01T05:29:46.222Z,9.20
2023-11-01T05:32:13.126Z,9.20
2023-11-01T05:34:40.242Z,9.30
2023-11-01T05:37:10.585Z,9.30
2023-11-01T05:39:37.577Z,9.30
2023-11-01T05:42:04.761Z,9.30
2023-11-01T05:44:32.163Z,9.30
2023-11-01T05:46:59.205Z,9.20
2023-11-01T05:49:26.040Z,9.20
2023-11-01T05:51:52.966Z,9.20
2023-11-01T05:54:19.904Z,9.10
2023-11-01T05:56:46.744Z,9.10
2023-11-01T05:59:13.571Z,9.00
2023-11-01T06:01:40.630Z,9.00
2023-11-01T06:04:07.696Z,9.00
2023-11-01T06:06:34.692Z,9.00
2023-11-01T06:09:01.498Z,8.90
2023-11-01T06:11:28.587Z,8.90
2023-11-01T06:13:55.433Z,8.90
2023-11-01T06:16:22.317Z,8.80
2023-11-01T06:18:49.946Z,8.70
2023-11-01T06:21:16.820Z,8.70
2023-11-01T06:23:45.709Z,8.60
2023-11-01T06:26:17.319Z,8.70
2023-11-01T06:28:44.747Z,8.60
2023-11-01T06:31:14.609Z,8.60
2023-11-01T06:33:41.598Z,8.60
2023-11-01T06:36:09.614Z,8.70
2023-11-01T06:38:37.399Z,8.70
2023-11-01T06:41:05.541Z,8.70
2023-11-01T06:43:32.914Z,8.80
2023-11-01T06:45:59.735Z,8.80
2023-11-01T06:48:26.785Z,8.80
2023-11-01T06:50:53.672Z,8.90
2023-11-01T06:53:20.556Z,8.90
2023-11-01T06:55:47.385Z,8.90
2023-11-01T06:58:14.146Z,9.00
2023-11-01T07:00:42.365Z,9.00
2023-11-01T07:03:11.645Z,9.00
2023-11-01T07:05:39.026Z,9.00
2023-11-01T07:08:06.164Z,9.00
2023-11-01T07:10:33.000Z,9.10
2023-11-01T07:12:59.873Z,9.10
2023-11-01T07:15:26.689Z,9.10
2023-11-01T07:17:53.589Z,9.10
2023-11-01T07:20:20.694Z,9.10
2023-11-01T07:22:47.586Z,9.10
2023-11-01T07:25:14.907Z,9.20
2023-11-01T07:27:41.757Z,9.20
2023-11-01T07:30:09.114Z,9.20
2023-11-01T07:32:35.991Z,9.20
2023-11-01T07:35:04.801Z,9.30
2023-11-01T07:37:31.645Z,9.30
2023-11-01T07:39:59.023Z,9.40
2023-11-01T07:42:25.921Z,9.50
2023-11-01T07:44:53.580Z,9.50
2023-11-01T07:47:20.471Z,9.60
2023-11-01T07:49:47.360Z,9.60
2023-11-01T07:52:14.136Z,9.70
2023-11-01T07:54:40.936Z,9.70
2023-11-01T07:57:07.803Z,9.80
2023-11-01T07:59:34.703Z,9.90
2023-11-01T08:02:02.322Z,9.90
2023-11-01T08:04:29.450Z,9.90
2023-11-01T08:06:57.429Z,10.00
2023-11-01T08:09:24.309Z,10.10
2023-11-01T08:11:51.182Z,10.20
2023-11-01T08:14:18.056Z,10.20
2023-11-01T08:16:49.086Z,10.30
2023-11-01T08:19:16.900Z,10.30
2023-11-01T08:21:43.697Z,10.30
2023-11-01T08:24:11.054Z,10.40
2023-11-01T08:26:38.452Z,10.40
2023-11-01T08:29:05.643Z,10.50
2023-11-01T08:31:32.521Z,10.50
2023-11-01T08:33:59.828Z,10.50
2023-11-01T08:36:26.900Z,10.60
2023-11-01T08:38:53.741Z,10.60
2023-11-01T08:41:20.680Z,10.60
2023-11-01T08:43:47.602Z,10.60
2023-11-01T08:46:16.592Z,10.60
2023-11-01T08:48:43.655Z,10.60
2023-11-01T08:51:10.548Z,10.60
2023-11-01T08:53:40.206Z,10.70
2023-11-01T08:56:07.433Z,10.70
2023-11-01T08:58:34.533Z,10.70
2023-11-01T09:01:01.928Z,10.70
2023-11-01T09:03:28.949Z,10.80
2023-11-01T09:05:56.103Z,10.80
2023-11-01T09:08:23.092Z,10.90
2023-11-01T09:10:52.914Z,11.00
2023-11-01T09:13:21.239Z,11.10
2023-11-01T09:15:48.092Z,11.20
2023-11-01T09:18:15.080Z,11.20
2023-11-01T09:20:42.047Z,11.30
2023-11-01T09:23:08.925Z,11.40
2023-11-01T09:25:35.981Z,11.50
2023-11-01T09:28:02.912Z,11.60
2023-11-01T09:30:30.112Z,11.60
2023-11-01T09:32:56.972Z,11.70
2023-11-01T09:35:24.099Z,11.70
2023-11-01T09:37:52.056Z,11.70
2023-11-01T09:40:20.205Z,11.80
2023-11-01T09:42:51.131Z,11.80
2023-11-01T09:45:19.338Z,11.80
2023-11-01T09:47:47.343Z,11.80
2023-11-01T09:50:14.949Z,11.80
2023-11-01T09:52:42.016Z,11.90
2023-11-01T09:55:09.643Z,12.00
2023-11-01T09:57:37.206Z,12.00
2023-11-01T10:00:05.201Z,12.00
2023-11-01T10:02:32.579Z,12.00
2023-11-01T10:04:59.528Z,12.10
2023-11-01T10:07:26.344Z,12.10
2023-11-01T10:09:53.482Z,12.10
2023-11-01T10:12:20.683Z,12.10
2023-11-01T10:14:47.596Z,12.20
2023-11-01T10:17:14.500Z,12.20
2023-11-01T10:19:44.725Z,12.20
2023-11-01T10:22:15.019Z,12.20
2023-11-01T10:24:43.720Z,12.30
2023-11-01T10:27:10.786Z,12.40
2023-11-01T10:29:46.818Z,12.50
2023-11-01T10:32:14.973Z,12.50
2023-11-01T10:34:41.912Z,12.60
2023-11-01T10:37:09.747Z,12.60
2023-11-01T10:39:39.830Z,12.60
2023-11-01T10:42:09.152Z,12.70
2023-11-01T10:44:36.070Z,12.70
2023-11-01T10:47:03.903Z,12.70
2023-11-01T10:49:34.218Z,12.70
2023-11-01T10:52:02.196Z,12.70
2023-11-01T10:54:29.812Z,12.70
2023-11-01T10:56:59.307Z,12.80
2023-11-01T10:59:42.353Z,12.80
2023-11-01T11:02:19.246Z,12.90
2023-11-01T11:05:08.823Z,12.90
2023-11-01T11:07:47.109Z,13.00
2023-11-01T11:10:30.115Z,13.00
2023-11-01T11:13:14.811Z,13.00
2023-11-01T11:16:08.071Z,13.10
2023-11-01T11:18:44.810Z,13.10
2023-11-01T11:21:50.135Z,13.10
2023-11-01T11:24:41.988Z,13.20
2023-11-01T11:27:48.575Z,13.20
2023-11-01T11:30:15.474Z,13.30
2023-11-01T11:32:42.655Z,13.30
2023-11-01T11:35:19.719Z,13.30
2023-11-01T11:37:46.477Z,13.30
2023-11-01T11:40:13.476Z,13.30
2023-11-01T11:42:43.313Z,13.30
2023-11-01T11:45:10.252Z,13.30
2023-11-01T11:47:37.180Z,13.30
2023-11-01T11:50:10.672Z,13.30
2023-11-01T11:52:39.703Z,13.30
2023-11-01T11:55:06.874Z,13.30
2023-11-01T11:57:33.657Z,13.30
2023-11-01T12:00:02.182Z,13.30
2023-11-01T12:02:31.423Z,13.30
2023-11-01T12:05:00.015Z,13.40
2023-11-01T12:07:26.967Z,13.60
2023-11-01T12:09:55.605Z,13.70
2023-11-01T12:12:23.082Z,13.70
2023-11-01T12:15:01.399Z,13.80
2023-11-01T12:17:29.611Z,13.90
2023-11-01T12:19:58.107Z,13.90
2023-11-01T12:22:26.199Z,14.00
2023-11-01T12:24:56.250Z,14.00
2023-11-01T12:27:33.315Z,13.90
2023-11-01T12:30:01.964Z,13.90
2023-11-01T12:32:35.790Z,13.90
2023-11-01T12:35:06.445Z,13.90
2023-11-01T12:37:35.645Z,13.90
2023-11-01T12:40:13.902Z,13.90
2023-11-01T12:42:46.346Z,13.90
2023-11-01T12:45:44.527Z,13.90
2023-11-01T12:52:29.518Z,14.00
2023-11-01T12:55:09.869Z,14.00
2023-11-01T12:58:14.513Z,14.00
2023-11-01T13:01:12.396Z,14.10
2023-11-01T13:12:53.744Z,14.20
2023-11-01T13:15:22.839Z,14.20
2023-11-01T13:18:00.816Z,14.20
2023-11-01T13:20:54.700Z,14.20
2023-11-01T13:26:26.723Z,14.20
2023-11-01T13:29:58.081Z,14.20
2023-11-01T13:33:38.943Z,14.10
2023-11-01T13:35:41.866Z,14.10
2023-11-01T13:38:08.725Z,14.10
2023-11-01T13:40:45.703Z,14.10
2023-11-01T13:43:12.574Z,14.10
2023-11-01T13:45:45.165Z,14.10
2023-11-01T13:48:12.141Z,14.10
2023-11-01T13:50:45.768Z,14.10
2023-11-01T13:53:12.876Z,14.10
2023-11-01T13:55:49.594Z,14.00
2023-11-01T13:58:20.215Z,14.00
2023-11-01T14:00:50.969Z,14.00
2023-11-01T14:03:18.059Z,14.00
2023-11-01T14:05:45.266Z,14.00
2023-11-01T14:08:19.710Z,14.00
2023-11-01T14:13:44.213Z,13.90
2023-11-01T14:16:18.027Z,13.90
2023-11-01T14:18:45.252Z,13.90
2023-11-01T14:21:12.728Z,14.00
2023-11-01T14:23:46.899Z,14.00
2023-11-01T14:26:13.790Z,13.90
2023-11-01T14:28:42.490Z,14.00
2023-11-01T14:31:27.560Z,13.90
2023-11-01T14:37:07.501Z,13.90
2023-11-01T14:39:34.584Z,13.80
2023-11-01T14:42:09.794Z,13.80
2023-11-01T14:44:36.804Z,13.80
2023-11-01T14:47:09.908Z,13.80
2023-11-01T14:49:36.769Z,13.70
2023-11-01T14:52:12.952Z,13.70
2023-11-01T14:54:39.820Z,13.60
2023-11-01T14:57:12.706Z,13.60
2023-11-01T14:59:40.028Z,13.60
2023-11-01T15:02:17.822Z,13.60
2023-11-01T15:04:48.359Z,13.50
2023-11-01T15:07:21.140Z,13.50
2023-11-01T15:09:48.904Z,13.50
2023-11-01T15:12:23.830Z,13.50
2023-11-01T15:14:51.313Z,13.40
2023-11-01T15:17:21.001Z,13.40
2023-11-01T15:19:48.957Z,13.40
2023-11-01T15:22:29.348Z,13.30
2023-11-01T15:25:07.219Z,13.30
2023-11-01T15:27:34.011Z,13.30
2023-11-01T15:30:09.709Z,13.20
2023-11-01T15:32:51.673Z,13.20
2023-11-01T15:35:18.786Z,13.20
2023-11-01T15:38:09.900Z,13.10
2023-11-01T15:40:36.789Z,13.10
2023-11-01T15:43:03.938Z,13.00
2023-11-01T15:45:34.035Z,13.00
2023-11-01T15:48:01.307Z,13.00
2023-11-01T15:50:41.942Z,13.00
2023-11-01T15:53:18.935Z,12.90
2023-11-01T15:55:45.781Z,12.90
2023-11-01T15:58:18.739Z,12.90
2023-11-01T16:00:45.679Z,12.80
2023-11-01T16:03:23.170Z,12.80
2023-11-01T16:05:50.142Z,12.80
2023-11-01T16:08:24.369Z,12.80
2023-11-01T16:10:51.189Z,12.80
2023-11-01T16:13:28.542Z,12.80
2023-11-01T16:16:09.772Z,12.80
2023-11-01T16:18:47.425Z,12.90
2023-11-01T16:21:15.184Z,12.90
2023-11-01T16:26:35.312Z,12.80
2023-11-01T16:29:02.223Z,12.80
2023-11-01T16:31:33.109Z,12.80
2023-11-01T16:34:00.550Z,12.80
2023-11-01T16:36:53.329Z,12.80
2023-11-01T16:39:20.413Z,12.80
2023-11-01T16:41:55.863Z,12.80
2023-11-01T16:44:22.733Z,12.80
2023-11-01T16:46:58.693Z,12.80
2023-11-01T16:49:25.567Z,12.80
2023-11-01T16:52:01.838Z,12.70
2023-11-01T16:54:28.636Z,12.80
2023-11-01T16:58:13.471Z,12.70
2023-11-01T17:00:45.744Z,12.70
2023-11-01T17:03:12.709Z,12.60
2023-11-01T17:05:47.229Z,12.60
2023-11-01T17:08:14.171Z,12.60
2023-11-01T17:10:48.616Z,12.60
2023-11-01T17:13:17.399Z,12.60
2023-11-01T17:15:48.367Z,12.60
2023-11-01T17:18:15.359Z,12.60
2023-11-01T17:20:52.824Z,12.60
2023-11-01T17:23:20.413Z,12.60
2023-11-01T17:25:54.344Z,12.60
2023-11-01T17:28:37.868Z,12.60
2023-11-01T17:31:16.242Z,12.60
2023-11-01T17:33:47.083Z,12.50
2023-11-01T17:36:28.145Z,12.50
2023-11-01T17:39:20.596Z,12.60
2023-11-01T17:41:59.342Z,12.60
2023-11-01T17:47:27.940Z,12.50
2023-11-01T17:50:07.061Z,12.50
2023-11-01T17:52:45.037Z,12.50
2023-11-01T17:55:26.207Z,12.50
2023-11-01T17:58:10.338Z,12.50
2023-11-01T18:00:53.292Z,12.60
2023-11-01T18:04:11.061Z,12.60
2023-11-01T18:06:52.006Z,12.60
2023-11-01T18:09:59.602Z,12.50
2023-11-01T18:12:35.576Z,12.50
2023-11-01T18:15:12.734Z,12.50
2023-11-01T18:17:39.714Z,12.50
2023-11-01T18:24:59.178Z,12.50
2023-11-01T18:27:40.877Z,12.50
2023-11-01T18:30:18.783Z,12.60
2023-11-01T18:33:02.739Z,12.60
2023-11-01T18:36:01.345Z,12.60
2023-11-01T18:38:49.256Z,12.60
2023-11-01T18:41:45.798Z,12.60
2023-11-01T18:44:49.969Z,12.50
2023-11-01T18:48:08.611Z,12.50
2023-11-01T18:50:35.534Z,12.50
2023-11-01T18:53:10.414Z,12.50
2023-11-01T18:56:31.880Z,12.50
2023-11-01T18:58:58.740Z,12.50
2023-11-01T19:01:34.035Z,12.50
2023-11-01T19:07:15.088Z,12.40
2023-11-01T19:09:44.701Z,12.40
2023-11-01T19:12:14.261Z,12.50
2023-11-01T19:14:41.245Z,12.50
2023-11-01T19:17:08.295Z,12.40
2023-11-01T19:19:35.114Z,12.40
2023-11-01T19:22:02.061Z,12.30
2023-11-01T19:24:28.897Z,12.30
2023-11-01T19:26:55.684Z,12.20
2023-11-01T19:29:22.473Z,12.20
2023-11-01T19:31:50.048Z,12.20
2023-11-01T19:34:16.868Z,12.10
2023-11-01T19:36:43.830Z,12.10
2023-11-01T19:39:12.135Z,12.10
2023-11-01T19:41:39.172Z,12.10
2023-11-01T19:44:07.358Z,12.10
2023-11-01T19:46:36.193Z,12.10
2023-11-01T19:49:03.322Z,12.10
2023-11-01T19:51:30.734Z,12.10
2023-11-01T19:53:57.994Z,12.10
2023-11-01T19:56:26.842Z,12.10
2023-11-01T19:58:54.359Z,12.00
2023-11-01T20:01:24.349Z,12.00
2023-11-01T20:03:51.691Z,12.00
2023-11-01T20:06:19.382Z,12.00
2023-11-01T20:08:46.303Z,11.90
2023-11-01T20:11:13.965Z,11.90
2023-11-01T20:13:40.950Z,11.80
2023-11-01T20:16:12.923Z,11.80
2023-11-01T20:18:45.832Z,11.80
2023-11-01T20:21:12.830Z,11.70
2023-11-01T20:23:39.795Z,11.70
2023-11-01T20:26:06.780Z,11.70
2023-11-01T20:28:33.726Z,11.60
2023-11-01T20:31:00.774Z,11.60
2023-11-01T20:33:27.804Z,11.50
2023-11-01T20:35:55.330Z,11.60
2023-11-01T20:38:22.418Z,11.50
2023-11-01T20:40:50.256Z,11.50
2023-11-01T20:43:17.926Z,11.50
2023-11-01T20:45:47.895Z,11.40
2023-11-01T20:48:15.603Z,11.40
2023-11-01T20:50:43.822Z,11.30
2023-11-01T20:53:10.662Z,11.30
2023-11-01T20:55:37.621Z,11.30
2023-11-01T20:58:04.915Z,11.20
2023-11-01T21:00:31.912Z,11.20
2023-11-01T21:02:59.030Z,11.20
2023-11-01T21:05:26.532Z,11.10
2023-11-01T21:07:55.286Z,11.10
2023-11-01T21:10:22.547Z,11.10
2023-11-01T21:12:49.663Z,11.10
2023-11-01T21:15:16.734Z,11.00
2023-11-01T21:17:43.858Z,11.00
2023-11-01T21:20:11.808Z,11.00
2023-11-01T21:22:39.359Z,11.00
2023-11-01T21:25:06.790Z,10.90
2023-11-01T21:27:33.692Z,10.90
2023-11-01T21:30:01.805Z,10.90
2023-11-01T21:32:29.222Z,10.90
2023-11-01T21:34:56.008Z,10.90
2023-11-01T21:37:22.804Z,10.90
2023-11-01T21:39:49.805Z,10.90
2023-11-01T21:42:24.020Z,10.90
2023-11-01T21:44:51.172Z,10.90
2023-11-01T21:47:30.126Z,10.90
2023-11-01T21:49:58.657Z,10.80
2023-11-01T21:52:26.019Z,10.80
2023-11-01T21:54:53.417Z,10.70
2023-11-01T21:57:30.445Z,10.60
2023-11-01T22:00:02.665Z,10.60
2023-11-01T22:02:52.064Z,10.70
2023-11-01T22:05:20.275Z,10.60
2023-11-01T22:07:48.053Z,10.50
2023-11-01T22:10:21.292Z,10.50
2023-11-01T22:12:50.241Z,10.50
2023-11-01T22:15:19.210Z,10.40
2023-11-01T22:17:47.379Z,10.40
2023-11-01T22:20:25.326Z,10.40
2023-11-01T22:22:59.876Z,10.30
2023-11-01T22:25:38.694Z,10.40
2023-11-01T22:28:08.320Z,10.30
2023-11-01T22:30:37.350Z,10.30
2023-11-01T22:33:13.314Z,10.30
2023-11-01T22:35:45.582Z,10.30
2023-11-01T22:38:14.489Z,10.30
2023-11-01T22:40:45.572Z,10.30
2023-11-01T22:43:15.399Z,10.30
2023-11-01T22:45:42.907Z,10.30
2023-11-01T22:48:10.065Z,10.30
2023-11-01T22:50:36.924Z,10.20
2023-11-01T22:53:03.686Z,10.10
2023-11-01T22:55:40.924Z,10.10
2023-11-01T22:58:10.090Z,10.00
2023-11-01T23:00:37.375Z,10.00
2023-11-01T23:03:05.948Z,9.90
2023-11-01T23:05:33.218Z,9.90
2023-11-01T23:08:02.751Z,9.90
2023-11-01T23:10:31.586Z,9.80
2023-11-01T23:12:58.464Z,9.80
2023-11-01T23:15:25.357Z,9.80
2023-11-01T23:17:52.366Z,9.80
2023-11-01T23:20:25.206Z,9.80
2023-11-01T23:22:53.557Z,9.70
2023-11-01T23:25:32.968Z,9.70
2023-11-01T23:28:05.233Z,9.70
2023-11-01T23:30:49.651Z,9.70
2023-11-01T23:33:16.556Z,9.70
2023-11-01T23:35:46.990Z,9.60
2023-11-01T23:38:14.739Z,9.60
2023-11-01T23:40:44.092Z,9.50
2023-11-01T23:43:12.575Z,9.40
2023-11-01T23:45:42.376Z,9.40
2023-11-01T23:48:10.102Z,9.30
2023-11-01T23:50:40.289Z,9.40
2023-11-01T23:53:09.549Z,9.30
2023-11-01T23:55:39.238Z,9.30
2023-11-01T23:58:07.970Z,9.30
